createdAt,value
2022-11-27T00:00:41.976Z,9.747489
2022-11-27T00:01:41.971Z,9.747389
2022-11-27T00:02:42.029Z,9.747428
2022-11-27T00:03:42.017Z,9.747435
2022-11-27T00:04:41.997Z,9.747358
2022-11-27T00:05:41.938Z,9.747327
2022-11-27T00:06:41.930Z,9.747363
2022-11-27T00:07:42.003Z,9.747387
2022-11-27T00:08:41.918Z,9.747391
2022-11-27T00:09:42.209Z,9.747263
2022-11-27T00:10:41.899Z,9.747324
2022-11-27T00:11:41.894Z,9.747407
2022-11-27T00:12:41.886Z,9.747379
2022-11-27T00:13:41.876Z,9.747335
2022-11-27T00:14:41.894Z,9.747309
2022-11-27T00:15:41.893Z,9.747294
2022-11-27T00:16:41.847Z,9.747347
2022-11-27T00:17:41.857Z,9.747342
2022-11-27T00:18:41.837Z,9.747454
2022-11-27T00:19:42.117Z,9.747316
2022-11-27T00:20:41.821Z,9.747350
2022-11-27T00:21:41.815Z,9.747418
2022-11-27T00:22:41.821Z,9.747334
2022-11-27T00:23:41.810Z,9.747385
2022-11-27T00:24:42.103Z,9.747356
2022-11-27T00:25:41.791Z,9.747306
2022-11-27T00:26:41.781Z,9.747408
2022-11-27T00:27:41.779Z,9.747383
2022-11-27T00:28:41.769Z,9.747298
2022-11-27T00:29:41.788Z,9.747312
2022-11-27T00:31:16.098Z,9.747282
2022-11-27T00:31:41.813Z,9.747361
2022-11-27T00:32:41.752Z,9.747390
2022-11-27T00:33:41.748Z,9.747410
2022-11-27T00:34:42.017Z,9.747342
2022-11-27T00:35:41.730Z,9.747280
2022-11-27T00:36:46.614Z,9.747203
2022-11-27T00:37:43.717Z,9.747171
2022-11-27T00:38:41.710Z,9.747264
2022-11-27T00:39:41.716Z,9.747200
2022-11-27T00:40:41.681Z,9.747150
2022-11-27T00:41:41.668Z,9.747153
2022-11-27T00:42:42.659Z,9.747290
2022-11-27T00:43:45.134Z,9.747291
2022-11-27T00:44:42.674Z,9.747248
2022-11-27T00:45:41.643Z,9.747187
2022-11-27T00:46:41.735Z,9.747268
2022-11-27T00:47:41.629Z,9.747244
2022-11-27T00:48:41.634Z,9.747154
2022-11-27T00:49:41.643Z,9.747206
2022-11-27T00:50:41.607Z,9.747136
2022-11-27T00:51:41.601Z,9.747144
2022-11-27T00:52:41.601Z,9.747125
2022-11-27T00:53:41.584Z,9.747236
2022-11-27T00:54:41.877Z,9.747167
2022-11-27T00:55:41.570Z,9.747170
2022-11-27T00:56:41.559Z,9.747227
2022-11-27T00:57:41.549Z,9.747235
2022-11-27T00:58:41.548Z,9.747198
2022-11-27T00:59:41.574Z,9.747231
2022-11-27T01:00:41.555Z,9.747128
2022-11-27T01:01:41.574Z,9.747199
2022-11-27T01:02:41.683Z,9.747254
2022-11-27T01:03:41.514Z,9.747407
2022-11-27T01:04:41.829Z,9.747409
2022-11-27T01:05:41.501Z,9.747458
2022-11-27T01:06:41.480Z,9.747418
2022-11-27T01:07:41.525Z,9.747372
2022-11-27T01:08:41.474Z,9.747329
2022-11-27T01:09:41.464Z,9.747331
2022-11-27T01:10:41.488Z,9.747337
2022-11-27T01:11:41.451Z,9.747288
2022-11-27T01:12:41.445Z,9.747296
2022-11-27T01:13:41.428Z,9.747320
2022-11-27T01:14:41.710Z,9.747411
2022-11-27T01:15:41.474Z,9.747289
2022-11-27T01:16:43.422Z,9.747333
2022-11-27T01:17:42.404Z,9.747252
2022-11-27T01:18:41.394Z,9.747206
2022-11-27T01:19:41.400Z,9.747371
2022-11-27T01:20:41.411Z,9.747309
2022-11-27T01:21:41.383Z,9.747277
2022-11-27T01:22:41.388Z,9.747262
2022-11-27T01:23:41.372Z,9.747259
2022-11-27T01:24:41.633Z,9.747233
2022-11-27T01:25:41.402Z,9.747326
2022-11-27T01:26:41.344Z,9.747274
2022-11-27T01:27:41.337Z,9.747361
2022-11-27T01:28:41.330Z,9.747291
2022-11-27T01:29:41.318Z,9.747536
2022-11-27T01:30:41.347Z,9.747429
2022-11-27T01:31:41.372Z,9.747389
2022-11-27T01:32:41.298Z,9.747315
2022-11-27T01:33:41.285Z,9.747292
2022-11-27T01:34:41.638Z,9.747387
2022-11-27T01:35:41.310Z,9.747396
2022-11-27T01:36:41.267Z,9.747278
2022-11-27T01:37:41.272Z,9.747413
2022-11-27T01:38:41.272Z,9.747426
2022-11-27T01:39:41.250Z,9.747391
2022-11-27T01:40:41.269Z,9.747326
2022-11-27T01:41:41.249Z,9.747317
2022-11-27T01:42:41.224Z,9.747386
2022-11-27T01:43:41.228Z,9.747478
2022-11-27T01:44:41.565Z,9.747451
2022-11-27T01:45:41.251Z,9.747529
2022-11-27T01:46:41.289Z,9.747545
2022-11-27T01:47:41.186Z,9.747484
2022-11-27T01:48:41.184Z,9.747483
2022-11-27T01:49:41.174Z,9.747404
2022-11-27T01:50:41.214Z,9.747401
2022-11-27T01:51:41.170Z,9.747402
2022-11-27T01:52:41.155Z,9.747411
2022-11-27T01:53:41.152Z,9.747391
2022-11-27T01:54:41.281Z,9.747484
2022-11-27T01:55:41.166Z,9.747232
2022-11-27T01:56:41.121Z,9.747298
2022-11-27T01:57:41.202Z,9.747470
2022-11-27T01:58:41.128Z,9.747375
2022-11-27T01:59:41.092Z,9.747319
2022-11-27T02:00:41.127Z,9.747385
2022-11-27T02:01:41.112Z,9.747387
2022-11-27T02:02:41.146Z,9.747472
2022-11-27T02:03:41.059Z,9.747431
2022-11-27T02:04:41.292Z,9.747495
2022-11-27T02:05:41.073Z,9.747377
2022-11-27T02:06:41.048Z,9.747420
2022-11-27T02:07:41.139Z,9.747424
2022-11-27T02:08:41.015Z,9.747514
2022-11-27T02:09:41.049Z,9.747398
2022-11-27T02:10:41.040Z,9.747493
2022-11-27T02:11:41.027Z,9.747460
2022-11-27T02:12:40.983Z,9.747327
2022-11-27T02:13:42.003Z,9.747319
2022-11-27T02:14:41.348Z,9.747328
2022-11-27T02:15:41.023Z,9.747330
2022-11-27T02:16:41.012Z,9.747495
2022-11-27T02:17:40.973Z,9.747298
2022-11-27T02:18:40.983Z,9.747328
2022-11-27T02:19:40.955Z,9.747354
2022-11-27T02:20:40.975Z,9.747314
2022-11-27T02:21:40.931Z,9.747385
2022-11-27T02:22:41.045Z,9.747355
2022-11-27T02:23:40.904Z,9.747379
2022-11-27T02:24:41.087Z,9.747453
2022-11-27T02:25:40.922Z,9.747349
2022-11-27T02:26:40.901Z,9.747382
2022-11-27T02:27:40.877Z,9.747307
2022-11-27T02:28:40.880Z,9.747379
2022-11-27T02:29:40.875Z,9.747574
2022-11-27T02:30:40.897Z,9.747426
2022-11-27T02:31:40.923Z,9.747409
2022-11-27T02:32:40.856Z,9.747441
2022-11-27T02:33:40.826Z,9.747413
2022-11-27T02:34:41.077Z,9.747453
2022-11-27T02:35:40.867Z,9.747338
2022-11-27T02:36:40.843Z,9.747432
2022-11-27T02:37:40.800Z,9.747382
2022-11-27T02:38:40.801Z,9.747301
2022-11-27T02:39:40.802Z,9.747423
2022-11-27T02:40:40.777Z,9.747297
2022-11-27T02:41:40.828Z,9.747423
2022-11-27T02:42:40.841Z,9.747522
2022-11-27T02:43:40.760Z,9.747673
2022-11-27T02:44:40.973Z,9.747458
2022-11-27T02:45:40.748Z,9.747414
2022-11-27T02:46:40.853Z,9.747409
2022-11-27T02:47:40.741Z,9.747388
2022-11-27T02:48:40.708Z,9.747346
2022-11-27T02:49:41.714Z,9.747314
2022-11-27T02:50:40.695Z,9.747390
2022-11-27T02:51:40.723Z,9.747433
2022-11-27T02:52:40.692Z,9.747458
2022-11-27T02:53:40.697Z,9.747485
2022-11-27T02:54:40.843Z,9.747446
2022-11-27T02:55:40.671Z,9.747439
2022-11-27T02:56:40.687Z,9.747361
2022-11-27T02:57:40.659Z,9.747416
2022-11-27T02:58:40.711Z,9.747487
2022-11-27T02:59:40.638Z,9.747439
2022-11-27T03:00:40.624Z,9.747467
2022-11-27T03:01:40.673Z,9.747419
2022-11-27T03:02:40.680Z,9.747422
2022-11-27T03:03:40.614Z,9.747373
2022-11-27T03:04:40.801Z,9.747422
2022-11-27T03:05:40.649Z,9.747466
2022-11-27T03:06:40.595Z,9.747483
2022-11-27T03:07:40.574Z,9.747458
2022-11-27T03:08:40.554Z,9.747403
2022-11-27T03:09:40.544Z,9.747404
2022-11-27T03:10:40.545Z,9.747444
2022-11-27T03:11:40.562Z,9.747372
2022-11-27T03:12:40.530Z,9.747366
2022-11-27T03:13:40.534Z,9.747385
2022-11-27T03:14:40.904Z,9.747396
2022-11-27T03:15:40.540Z,9.747365
2022-11-27T03:16:40.521Z,9.747363
2022-11-27T03:17:40.496Z,9.747398
2022-11-27T03:18:40.480Z,9.747373
2022-11-27T03:19:40.470Z,9.747395
2022-11-27T03:20:40.474Z,9.747396
2022-11-27T03:21:40.479Z,9.747389
2022-11-27T03:22:40.444Z,9.747454
2022-11-27T03:23:40.444Z,9.747449
2022-11-27T03:24:40.915Z,9.747334
2022-11-27T03:25:40.422Z,9.747357
2022-11-27T03:26:40.447Z,9.747383
2022-11-27T03:27:40.417Z,9.747484
2022-11-27T03:28:40.402Z,9.747428
2022-11-27T03:29:40.400Z,9.747414
2022-11-27T03:30:40.465Z,9.747483
2022-11-27T03:31:40.443Z,9.747381
2022-11-27T03:32:40.375Z,9.747291
2022-11-27T03:33:40.366Z,9.747174
2022-11-27T03:34:40.664Z,9.747339
2022-11-27T03:35:40.370Z,9.747297
2022-11-27T03:36:40.387Z,9.747317
2022-11-27T03:37:40.337Z,9.747293
2022-11-27T03:38:40.328Z,9.747362
2022-11-27T03:39:40.323Z,9.747271
2022-11-27T03:40:40.313Z,9.747472
2022-11-27T03:41:40.336Z,9.747311
2022-11-27T03:42:40.295Z,9.747286
2022-11-27T03:43:40.295Z,9.747366
2022-11-27T03:44:40.532Z,9.747424
2022-11-27T03:45:40.323Z,9.747359
2022-11-27T03:46:40.433Z,9.747392
2022-11-27T03:47:40.315Z,9.747369
2022-11-27T03:48:40.252Z,9.747390
2022-11-27T03:49:40.239Z,9.747395
2022-11-27T03:50:40.235Z,9.747382
2022-11-27T03:51:40.240Z,9.747358
2022-11-27T03:52:40.258Z,9.747382
2022-11-27T03:53:40.226Z,9.747397
2022-11-27T03:54:40.463Z,9.747410
2022-11-27T03:55:40.211Z,9.747311
2022-11-27T03:56:40.188Z,9.747318
2022-11-27T03:57:40.211Z,9.747337
2022-11-27T03:58:40.177Z,9.747382
2022-11-27T03:59:40.168Z,9.747392
2022-11-27T04:00:40.156Z,9.747419
2022-11-27T04:01:40.175Z,9.747349
2022-11-27T04:02:40.239Z,9.747361
2022-11-27T04:03:40.238Z,9.747187
2022-11-27T04:04:40.518Z,9.747329
2022-11-27T04:05:40.118Z,9.747332
2022-11-27T04:06:40.107Z,9.747448
2022-11-27T04:07:40.184Z,9.747538
2022-11-27T04:08:40.097Z,9.747438
2022-11-27T04:09:40.087Z,9.747364
2022-11-27T04:10:40.079Z,9.747328
2022-11-27T04:11:40.084Z,9.747394
2022-11-27T04:12:40.091Z,9.747524
2022-11-27T04:13:40.059Z,9.747546
2022-11-27T04:14:40.451Z,9.747224
2022-11-27T04:15:40.039Z,9.747267
2022-11-27T04:16:40.099Z,9.747167
2022-11-27T04:17:40.055Z,9.747314
2022-11-27T04:18:40.097Z,9.747418
2022-11-27T04:19:40.007Z,9.747478
2022-11-27T04:20:39.997Z,9.747433
2022-11-27T04:21:40.007Z,9.747399
2022-11-27T04:22:40.067Z,9.747178
2022-11-27T04:23:39.983Z,9.747325
2022-11-27T04:24:40.268Z,9.747322
2022-11-27T04:25:39.966Z,9.747233
2022-11-27T04:26:39.955Z,9.747318
2022-11-27T04:27:39.986Z,9.747348
2022-11-27T04:28:39.944Z,9.747370
2022-11-27T04:29:39.947Z,9.747513
2022-11-27T04:30:39.934Z,9.747407
2022-11-27T04:31:39.955Z,9.747537
2022-11-27T04:32:39.947Z,9.747458
2022-11-27T04:33:39.906Z,9.747371
2022-11-27T04:34:40.290Z,9.747417
2022-11-27T04:35:39.890Z,9.747363
2022-11-27T04:36:39.899Z,9.747448
2022-11-27T04:37:39.907Z,9.747313
2022-11-27T04:38:39.876Z,9.747377
2022-11-27T04:39:39.857Z,9.747284
2022-11-27T04:40:39.852Z,9.747357
2022-11-27T04:41:39.845Z,9.747505
2022-11-27T04:42:39.844Z,9.747444
2022-11-27T04:43:40.345Z,9.747467
2022-11-27T04:44:40.069Z,9.747539
2022-11-27T04:45:40.819Z,9.747442
2022-11-27T04:46:39.886Z,9.747472
2022-11-27T04:47:39.795Z,9.747603
2022-11-27T04:48:39.819Z,9.747495
2022-11-27T04:49:39.795Z,9.747656
2022-11-27T04:50:39.854Z,9.747303
2022-11-27T04:51:39.781Z,9.747276
2022-11-27T04:52:39.764Z,9.747353
2022-11-27T04:53:39.794Z,9.747507
2022-11-27T04:54:39.958Z,9.747515
2022-11-27T04:55:39.738Z,9.747518
2022-11-27T04:56:39.740Z,9.747440
2022-11-27T04:57:39.722Z,9.747469
2022-11-27T04:58:39.750Z,9.747359
2022-11-27T04:59:39.726Z,9.747497
2022-11-27T05:00:39.760Z,9.747480
2022-11-27T05:01:39.732Z,9.747439
2022-11-27T05:02:39.782Z,9.747399
2022-11-27T05:03:39.701Z,9.747417
2022-11-27T05:04:39.886Z,9.747392
2022-11-27T05:05:39.662Z,9.747629
2022-11-27T05:06:39.760Z,9.747520
2022-11-27T05:07:39.727Z,9.747349
2022-11-27T05:08:39.673Z,9.747364
2022-11-27T05:09:40.650Z,9.747344
2022-11-27T05:10:39.630Z,9.747346
2022-11-27T05:11:39.613Z,9.747451
2022-11-27T05:12:39.613Z,9.747258
2022-11-27T05:13:39.638Z,9.747482
2022-11-27T05:14:39.898Z,9.747405
2022-11-27T05:15:39.586Z,9.747365
2022-11-27T05:16:39.629Z,9.747383
2022-11-27T05:17:39.581Z,9.747405
2022-11-27T05:18:39.601Z,9.747360
2022-11-27T05:19:39.564Z,9.747347
2022-11-27T05:20:39.555Z,9.747392
2022-11-27T05:21:39.544Z,9.747352
2022-11-27T05:22:39.608Z,9.747349
2022-11-27T05:23:39.555Z,9.747059
2022-11-27T05:24:39.742Z,9.747254
2022-11-27T05:25:39.537Z,9.747240
2022-11-27T05:26:39.511Z,9.747219
2022-11-27T05:27:39.509Z,9.747196
2022-11-27T05:28:39.521Z,9.747332
2022-11-27T05:29:39.480Z,9.747327
2022-11-27T05:30:39.478Z,9.747238
2022-11-27T05:31:39.564Z,9.747239
2022-11-27T05:32:39.470Z,9.747249
2022-11-27T05:33:39.453Z,9.747086
2022-11-27T05:34:39.831Z,9.747215
2022-11-27T05:35:39.435Z,9.747248
2022-11-27T05:36:39.498Z,9.747231
2022-11-27T05:37:39.424Z,9.747185
2022-11-27T05:38:39.483Z,9.747196
2022-11-27T05:39:40.416Z,9.747239
2022-11-27T05:40:39.410Z,9.747093
2022-11-27T05:41:39.417Z,9.747158
2022-11-27T05:42:39.397Z,9.747182
2022-11-27T05:43:39.391Z,9.747202
2022-11-27T05:44:39.711Z,9.747214
2022-11-27T05:45:39.360Z,9.747290
2022-11-27T05:46:39.443Z,9.747224
2022-11-27T05:47:39.349Z,9.747288
2022-11-27T05:48:39.365Z,9.747293
2022-11-27T05:49:39.344Z,9.747237
2022-11-27T05:50:39.330Z,9.747330
2022-11-27T05:51:39.357Z,9.747278
2022-11-27T05:52:39.314Z,9.747217
2022-11-27T05:53:39.305Z,9.747297
2022-11-27T05:54:39.571Z,9.747204
2022-11-27T05:55:39.288Z,9.747235
2022-11-27T05:56:39.304Z,9.747353
2022-11-27T05:57:39.277Z,9.747212
2022-11-27T05:58:39.269Z,9.747216
2022-11-27T05:59:39.266Z,9.747248
2022-11-27T06:00:39.248Z,9.747293
2022-11-27T06:01:39.359Z,9.747353
2022-11-27T06:02:39.419Z,9.747422
2022-11-27T06:03:39.308Z,9.747429
2022-11-27T06:04:39.510Z,9.747361
2022-11-27T06:05:39.223Z,9.747384
2022-11-27T06:06:39.230Z,9.747361
2022-11-27T06:07:39.261Z,9.747343
2022-11-27T06:08:39.188Z,9.747414
2022-11-27T06:09:39.190Z,9.747419
2022-11-27T06:10:39.248Z,9.747297
2022-11-27T06:11:39.211Z,9.747216
2022-11-27T06:12:39.166Z,9.747322
2022-11-27T06:13:39.153Z,9.747274
2022-11-27T06:14:39.433Z,9.747293
2022-11-27T06:15:39.159Z,9.747245
2022-11-27T06:16:39.207Z,9.747306
2022-11-27T06:17:39.120Z,9.747151
2022-11-27T06:18:39.119Z,9.747042
2022-11-27T06:19:39.113Z,9.747252
2022-11-27T06:20:43.683Z,9.747240
2022-11-27T06:21:41.126Z,9.747321
2022-11-27T06:22:39.082Z,9.747285
2022-11-27T06:23:39.084Z,9.747318
2022-11-27T06:24:39.430Z,9.747272
2022-11-27T06:25:39.060Z,9.747296
2022-11-27T06:26:39.123Z,9.747280
2022-11-27T06:27:39.078Z,9.747160
2022-11-27T06:28:39.040Z,9.747227
2022-11-27T06:29:39.032Z,9.747286
2022-11-27T06:31:17.258Z,9.747299
2022-11-27T06:31:40.067Z,9.747352
2022-11-27T06:32:39.035Z,9.747351
2022-11-27T06:33:39.001Z,9.747291
2022-11-27T06:34:39.343Z,9.747379
2022-11-27T06:35:38.980Z,9.747310
2022-11-27T06:36:38.977Z,9.747231
2022-11-27T06:37:39.000Z,9.747307
2022-11-27T06:38:38.967Z,9.747311
2022-11-27T06:39:38.960Z,9.747091
2022-11-27T06:40:38.941Z,9.747246
2022-11-27T06:41:38.956Z,9.747298
2022-11-27T06:42:39.036Z,9.747251
2022-11-27T06:43:38.917Z,9.747294
2022-11-27T06:44:39.242Z,9.747231
2022-11-27T06:45:38.939Z,9.747301
2022-11-27T06:46:38.907Z,9.747324
2022-11-27T06:47:38.933Z,9.747251
2022-11-27T06:48:38.891Z,9.747216
2022-11-27T06:49:38.882Z,9.747206
2022-11-27T06:50:38.876Z,9.747251
2022-11-27T06:51:38.863Z,9.747214
2022-11-27T06:52:40.832Z,9.747246
2022-11-27T06:53:39.844Z,9.747108
2022-11-27T06:54:39.181Z,9.747156
2022-11-27T06:55:38.837Z,9.747255
2022-11-27T06:56:38.826Z,9.747333
2022-11-27T06:57:38.841Z,9.747219
2022-11-27T06:58:38.883Z,9.747226
2022-11-27T06:59:38.787Z,9.747239
2022-11-27T07:00:39.812Z,9.747293
2022-11-27T07:01:38.876Z,9.747249
2022-11-27T07:02:38.876Z,9.747201
2022-11-27T07:03:38.779Z,9.747947
2022-11-27T07:04:39.101Z,9.747813
2022-11-27T07:05:38.751Z,9.747746
2022-11-27T07:06:38.743Z,9.747484
2022-11-27T07:07:43.548Z,9.747617
2022-11-27T07:08:40.727Z,9.747673
2022-11-27T07:09:38.721Z,9.747676
2022-11-27T07:10:38.715Z,9.747563
2022-11-27T07:11:38.717Z,9.747304
2022-11-27T07:12:38.697Z,9.747321
2022-11-27T07:13:38.719Z,9.747332
2022-11-27T07:14:39.147Z,9.747122
2022-11-27T07:15:38.676Z,9.747313
2022-11-27T07:16:38.752Z,9.747604
2022-11-27T07:17:38.667Z,9.747567
2022-11-27T07:18:38.682Z,9.747508
2022-11-27T07:19:38.653Z,9.747726
2022-11-27T07:20:38.641Z,9.747577
2022-11-27T07:21:38.633Z,9.747325
2022-11-27T07:22:38.626Z,9.747375
2022-11-27T07:23:38.645Z,9.747342
2022-11-27T07:24:38.776Z,9.747260
2022-11-27T07:25:38.602Z,9.747316
2022-11-27T07:26:38.604Z,9.747354
2022-11-27T07:27:38.593Z,9.747359
2022-11-27T07:28:38.608Z,9.747265
2022-11-27T07:29:38.575Z,9.747223
2022-11-27T07:30:38.639Z,9.747237
2022-11-27T07:31:38.600Z,9.747215
2022-11-27T07:32:38.553Z,9.747421
2022-11-27T07:33:38.569Z,9.747324
2022-11-27T07:34:38.778Z,9.747334
2022-11-27T07:35:38.529Z,9.747303
2022-11-27T07:36:38.524Z,9.747122
2022-11-27T07:37:38.513Z,9.747414
2022-11-27T07:38:38.532Z,9.747455
2022-11-27T07:40:00.986Z,9.747498
2022-11-27T07:40:40.484Z,9.747332
2022-11-27T07:41:38.477Z,9.747295
2022-11-27T07:42:39.353Z,9.747385
2022-11-27T07:43:38.487Z,9.747436
2022-11-27T07:44:38.624Z,9.747335
2022-11-27T07:45:38.475Z,9.747297
2022-11-27T07:46:38.508Z,9.747449
2022-11-27T07:47:38.431Z,9.747419
2022-11-27T07:48:38.452Z,9.747413
2022-11-27T07:49:38.421Z,9.747381
2022-11-27T07:50:38.407Z,9.747291
2022-11-27T07:51:38.406Z,9.747422
2022-11-27T07:52:42.065Z,9.747431
2022-11-27T07:53:39.417Z,9.747525
2022-11-27T07:54:38.792Z,9.747443
2022-11-27T07:55:38.368Z,9.747379
2022-11-27T07:56:38.357Z,9.747412
2022-11-27T07:57:38.349Z,9.747335
2022-11-27T07:58:38.371Z,9.747358
2022-11-27T07:59:40.008Z,9.747252
2022-11-27T08:00:38.436Z,9.747414
2022-11-27T08:01:38.392Z,9.747502
2022-11-27T08:02:38.381Z,9.747423
2022-11-27T08:03:38.330Z,9.747380
2022-11-27T08:04:38.610Z,9.747362
2022-11-27T08:05:39.286Z,9.747377
2022-11-27T08:06:38.281Z,9.747319
2022-11-27T08:07:38.339Z,9.747259
2022-11-27T08:08:38.294Z,9.747313
2022-11-27T08:09:38.261Z,9.747714
2022-11-27T08:10:38.253Z,9.747615
2022-11-27T08:11:38.249Z,9.747777
2022-11-27T08:12:38.235Z,9.747658
2022-11-27T08:13:38.259Z,9.747333
2022-11-27T08:14:38.501Z,9.747298
2022-11-27T08:15:38.218Z,9.747309
2022-11-27T08:16:38.280Z,9.747397
2022-11-27T08:17:38.201Z,9.747442
2022-11-27T08:18:38.275Z,9.747397
2022-11-27T08:19:38.211Z,9.747423
2022-11-27T08:20:38.181Z,9.747412
2022-11-27T08:21:38.170Z,9.747405
2022-11-27T08:22:38.166Z,9.747442
2022-11-27T08:23:38.152Z,9.747685
2022-11-27T08:24:38.273Z,9.747368
2022-11-27T08:25:38.132Z,9.747257
2022-11-27T08:26:38.129Z,9.747330
2022-11-27T08:27:38.127Z,9.747255
2022-11-27T08:28:38.115Z,9.747311
2022-11-27T08:29:38.145Z,9.747322
2022-11-27T08:30:38.117Z,9.747235
2022-11-27T08:31:38.140Z,9.747365
2022-11-27T08:32:38.082Z,9.747370
2022-11-27T08:33:38.077Z,9.747397
2022-11-27T08:34:38.304Z,9.747384
2022-11-27T08:35:38.064Z,9.747295
2022-11-27T08:36:38.054Z,9.747289
2022-11-27T08:37:38.049Z,9.747331
2022-11-27T08:38:38.036Z,9.747210
2022-11-27T08:39:38.056Z,9.747191
2022-11-27T08:40:38.020Z,9.747321
2022-11-27T08:41:38.015Z,9.747302
2022-11-27T08:42:38.004Z,9.747345
2022-11-27T08:43:37.998Z,9.747355
2022-11-27T08:44:38.184Z,9.747369
2022-11-27T08:45:38.015Z,9.747297
2022-11-27T08:46:37.978Z,9.747328
2022-11-27T08:47:37.970Z,9.747343
2022-11-27T08:48:37.967Z,9.747211
2022-11-27T08:49:42.533Z,9.747384
2022-11-27T08:50:40.016Z,9.747328
2022-11-27T08:51:37.934Z,9.747356
2022-11-27T08:52:37.933Z,9.747332
2022-11-27T08:53:38.007Z,9.747375
2022-11-27T08:54:38.314Z,9.747280
2022-11-27T08:55:37.907Z,9.747172
2022-11-27T08:56:37.908Z,9.747253
2022-11-27T08:57:37.910Z,9.747293
2022-11-27T08:58:37.896Z,9.747405
2022-11-27T08:59:37.912Z,9.747313
2022-11-27T09:00:37.945Z,9.747259
2022-11-27T09:01:37.957Z,9.747256
2022-11-27T09:02:37.862Z,9.747365
2022-11-27T09:03:37.920Z,9.747326
2022-11-27T09:04:37.877Z,9.747362
2022-11-27T09:05:37.844Z,9.747349
2022-11-27T09:06:37.906Z,9.747298
2022-11-27T09:07:37.877Z,9.747314
2022-11-27T09:08:37.815Z,9.747262
2022-11-27T09:09:37.836Z,9.747318
2022-11-27T09:10:37.790Z,9.747385
2022-11-27T09:11:38.796Z,9.747392
2022-11-27T09:12:43.026Z,9.747334
2022-11-27T09:13:39.776Z,9.747286
2022-11-27T09:14:38.098Z,9.747134
2022-11-27T09:15:37.766Z,9.747249
2022-11-27T09:16:37.788Z,9.747386
2022-11-27T09:17:37.744Z,9.747258
2022-11-27T09:18:37.734Z,9.747286
2022-11-27T09:19:37.757Z,9.747281
2022-11-27T09:20:37.717Z,9.747282
2022-11-27T09:21:37.714Z,9.747249
2022-11-27T09:22:37.783Z,9.747275
2022-11-27T09:23:37.711Z,9.747388
2022-11-27T09:24:37.768Z,9.747439
2022-11-27T09:25:37.689Z,9.747437
2022-11-27T09:26:37.676Z,9.747238
2022-11-27T09:27:37.669Z,9.747521
2022-11-27T09:28:37.660Z,9.747489
2022-11-27T09:29:37.689Z,9.747421
2022-11-27T09:30:37.652Z,9.747203
2022-11-27T09:31:37.686Z,9.747239
2022-11-27T09:32:37.634Z,9.747442
2022-11-27T09:33:37.632Z,9.747392
2022-11-27T09:34:37.947Z,9.747388
2022-11-27T09:35:37.735Z,9.747411
2022-11-27T09:36:37.602Z,9.747446
2022-11-27T09:37:37.618Z,9.747403
2022-11-27T09:38:37.655Z,9.747501
2022-11-27T09:39:37.572Z,9.747538
2022-11-27T09:40:38.593Z,9.747458
2022-11-27T09:41:37.562Z,9.747487
2022-11-27T09:42:37.557Z,9.747400
2022-11-27T09:43:37.546Z,9.747393
2022-11-27T09:44:37.648Z,9.747357
2022-11-27T09:45:37.592Z,9.747421
2022-11-27T09:46:37.525Z,9.747375
2022-11-27T09:47:41.412Z,9.747437
2022-11-27T09:48:38.511Z,9.747175
2022-11-27T09:49:37.499Z,9.747449
2022-11-27T09:50:37.515Z,9.747501
2022-11-27T09:51:37.591Z,9.747439
2022-11-27T09:52:37.479Z,9.747516
2022-11-27T09:53:37.476Z,9.747187
2022-11-27T09:54:37.580Z,9.747332
2022-11-27T09:55:37.490Z,9.747407
2022-11-27T09:56:37.448Z,9.747463
2022-11-27T09:57:37.438Z,9.747570
2022-11-27T09:58:37.430Z,9.747532
2022-11-27T09:59:37.422Z,9.747326
2022-11-27T10:00:37.444Z,9.747428
2022-11-27T10:01:45.199Z,9.747352
2022-11-27T10:02:39.648Z,9.747454
2022-11-27T10:03:37.390Z,9.747478
2022-11-27T10:04:57.964Z,9.747437
2022-11-27T10:05:39.401Z,9.747437
2022-11-27T10:06:37.365Z,9.747456
2022-11-27T10:07:37.435Z,9.747370
2022-11-27T10:08:37.351Z,9.747542
2022-11-27T10:09:37.341Z,9.747412
2022-11-27T10:10:37.439Z,9.747425
2022-11-27T10:11:37.322Z,9.747440
2022-11-27T10:12:37.324Z,9.747446
2022-11-27T10:13:37.309Z,9.747477
2022-11-27T10:14:37.321Z,9.747474
2022-11-27T10:15:37.318Z,9.747678
2022-11-27T10:16:41.386Z,9.747568
2022-11-27T10:17:39.354Z,9.747441
2022-11-27T10:18:37.275Z,9.747412
2022-11-27T10:19:37.261Z,9.747563
2022-11-27T10:20:37.288Z,9.747569
2022-11-27T10:21:37.250Z,9.747463
2022-11-27T10:22:37.243Z,9.747416
2022-11-27T10:23:37.239Z,9.747450
2022-11-27T10:24:37.255Z,9.747579
2022-11-27T10:25:37.218Z,9.747554
2022-11-27T10:26:37.305Z,9.747437
2022-11-27T10:27:37.198Z,9.747529
2022-11-27T10:28:37.188Z,9.747424
2022-11-27T10:29:37.188Z,9.747519
2022-11-27T10:30:37.181Z,9.747654
2022-11-27T10:31:37.295Z,9.747581
2022-11-27T10:33:39.164Z,9.747379
2022-11-27T10:34:37.166Z,9.747305
2022-11-27T10:35:37.159Z,9.747428
2022-11-27T10:36:37.166Z,9.747435
2022-11-27T10:37:37.124Z,9.747445
2022-11-27T10:38:37.120Z,9.747462
2022-11-27T10:39:37.112Z,9.747289
2022-11-27T10:40:37.102Z,9.747396
2022-11-27T10:41:52.404Z,9.747310
2022-11-27T10:42:39.152Z,9.747355
2022-11-27T10:43:38.082Z,9.747465
2022-11-27T10:44:37.074Z,9.747514
2022-11-27T10:45:37.103Z,9.747411
2022-11-27T10:46:37.079Z,9.747570
2022-11-27T10:47:37.046Z,9.747448
2022-11-27T10:48:37.037Z,9.747455
2022-11-27T10:49:37.032Z,9.747415
2022-11-27T10:50:37.030Z,9.747387
2022-11-27T10:51:37.051Z,9.747476
2022-11-27T10:52:37.008Z,9.747590
2022-11-27T10:53:37.006Z,9.747484
2022-11-27T10:54:36.996Z,9.747505
2022-11-27T10:55:36.997Z,9.747509
2022-11-27T10:56:37.007Z,9.747539
2022-11-27T10:57:36.974Z,9.747471
2022-11-27T10:58:37.030Z,9.747436
2022-11-27T10:59:36.951Z,9.747418
2022-11-27T11:00:36.950Z,9.747412
2022-11-27T11:01:37.016Z,9.747369
2022-11-27T11:02:36.991Z,9.747304
2022-11-27T11:03:36.927Z,9.747359
2022-11-27T11:04:38.637Z,9.747408
2022-11-27T11:06:11.657Z,9.747430
2022-11-27T11:06:38.925Z,9.747388
2022-11-27T11:07:36.929Z,9.747410
2022-11-27T11:08:36.884Z,9.747463
2022-11-27T11:09:36.877Z,9.747472
2022-11-27T11:10:36.865Z,9.747406
2022-11-27T11:11:36.890Z,9.747406
2022-11-27T11:12:36.865Z,9.747431
2022-11-27T11:13:36.853Z,9.747372
2022-11-27T11:14:36.912Z,9.747442
2022-11-27T11:15:36.831Z,9.747438
2022-11-27T11:16:36.886Z,9.747392
2022-11-27T11:17:36.821Z,9.747375
2022-11-27T11:18:36.823Z,9.747370
2022-11-27T11:19:36.800Z,9.747334
2022-11-27T11:20:36.795Z,9.747329
2022-11-27T11:21:36.817Z,9.747283
2022-11-27T11:22:36.783Z,9.747256
2022-11-27T11:23:36.774Z,9.747256
2022-11-27T11:24:36.767Z,9.747309
2022-11-27T11:25:36.754Z,9.747291
2022-11-27T11:26:36.778Z,9.747169
2022-11-27T11:27:36.738Z,9.747236
2022-11-27T11:28:39.695Z,9.747252
2022-11-27T11:29:37.729Z,9.747336
2022-11-27T11:30:36.791Z,9.747453
2022-11-27T11:31:36.758Z,9.747423
2022-11-27T11:32:36.702Z,9.747338
2022-11-27T11:33:36.689Z,9.747450
2022-11-27T11:34:36.688Z,9.747495
2022-11-27T11:35:36.687Z,9.747384
2022-11-27T11:36:36.671Z,9.747444
2022-11-27T11:37:36.688Z,9.747508
2022-11-27T11:38:36.651Z,9.747407
2022-11-27T11:39:36.642Z,9.747322
2022-11-27T11:40:36.647Z,9.747381
2022-11-27T11:41:36.631Z,9.747318
2022-11-27T11:42:36.652Z,9.747293
2022-11-27T11:43:36.618Z,9.747455
2022-11-27T11:44:36.614Z,9.747246
2022-11-27T11:45:36.677Z,9.747487